Pelham, NH

7:39 AM EDT on April 28, 2015 (GMT -0400)
Independence Dr | | Change Station
CLOSE
Current Station
Personal Weather Station
Location: Pelham, NH
Elevation: 180 ft
Nearby Weather Stations

Elev 180 ft 42.74 °N, 71.34 °W | Updated 12 seconds ago

Mostly Cloudy
Mostly Cloudy
44.6 °F
Feels Like 45 °F
N
0.0
Wind Variable Wind from WNW
Gusts 8.0 mph

Today
High -- | Low -- °F
--% Chance of Precip.
Yesterday
High -- | Low -- °F
Precip. -- in
5:44 AM 7:42 PM
Waxing Gibbous, 73% visible
Pressure 30.49 in
Visibility 10.0 miles
Clouds Few 4200 ft
Scattered Clouds 5500 ft
Windchill 45 °F
Dew Point 39 °F
Humidity 81%
Rainfall 0.07 in
Snow Depth Not available.
UV 0.6 out of 12
Pollen 8.00 out of 12
Air Quality Not available.
Flu Activity Regional
METAR KASH 281051Z AUTO 34005KT 10SM FEW042 SCT055 07/04 A2975 RMK AO2 T00660044 RAE32 P0000 SLP325 $

More Conditions Fewer Conditions

Pressure 30.49 in
Visibility 10.0 miles
Clouds Few 4200 ft
Scattered Clouds 5500 ft
Windchill 45 °F
Dew Point 39 °F
Humidity 81%
Rainfall 0.07 in
Snow Depth Not available.
UV 0.6 out of 12
Pollen 8.00 out of 12
Air Quality Not available.
Flu Activity Regional
METAR KASH 281051Z AUTO 34005KT 10SM FEW042 SCT055 07/04 A2975 RMK AO2 T00660044 RAE32 P0000 SLP325 $

More Conditions Fewer Conditions

10-Day Weather Forecast

Almanac

Astronomy

Apr. 28, 2015 Rise Set
Actual Time
Civil Twilight
Nautical Twilight
Astronomical Twilight
Moon
Length of Visible Light
Length of Day
Tomorrow will be .
, % of the Moon is Illuminated

Today's Extremes

State Highs State Lows

Community

WunderPhotos

Upload Photos

1,817,610 photos uploaded!

WunderBlogs® & News

Nearby

Air Quality

  Air Quality AQ Index Pollutant
Not available.

Snow Depth

Station Depth Elevation

Earthquake Activity

City Distance Mag. Time & Date
Minimum magnitude displayed is 2.5.

Coastal Water Temperatures

Place Temperature

Stations

Nearby Weather Stations

Station Location Temp. Windchill Dew Point Humidity Wind Precip. Elev Updated Type